Station: Nullo Mountain  

  Atmospheric Gas Attenuation - ITU Rec 676-11   ----------------- dB/100km -----------------
Date Time Temp RH % AH g/m3 Dew Point Wind Direction Speed kph Gust kph Barometer mB Rainfall Since 9am 24GHz 47GHz 76GHz 122GHz 134GHz 241GHz
08/05 12:30 9.1 69 6.12 3.7 20 33 1013.1 0 14.5 23.2 32.1 83.9 71.2 242.7
08/05 12:20 8.6 69 5.93 3.2 19 24 1013.1 0 14.1 23.1 31.6 82.4 69.3 235.7
08/05 12:10 8.7 70 6.06 3.5 20 28 1013.1 0 14.4 23.2 32.0 83.7 70.8 241.2
08/05 12:00 8.1 70 5.83 3 24 46 1013.1 0 13.9 23.0 31.4 81.9 68.4 232.7
08/05 11:50 8.9 70 6.13 3.7 20 30 1013.1 0 14.5 23.3 32.2 84.2 71.6 243.8
08/05 11:40 8 71 5.87 3 22 32 1013.1 0 14.0 23.1 31.6 82.4 69.0 234.8
08/05 11:30 8.1 70 5.83 3 22 35 1013.1 0 13.9 23.0 31.4 81.9 68.4 232.7
08/05 11:20 8 71 5.87 3 24 32 1013.1 0 14.0 23.1 31.6 82.4 69.0 234.8
08/05 11:10 7.7 71 5.76 2.9 26 35 1013.1 0 13.8 23.0 31.3 81.6 67.9 230.7
08/05 11:00 7.4 72 5.73 2.7 20 33 1013.1 0 13.7 23.1 31.3 81.6 67.7 230.2
08/05 10:50 7.5 71 5.69 2.7 24 30 1013.1 0 13.6 23.0 31.1 81.1 67.1 228.1
08/05 10:40 7 73 5.66 2.5 24 32 1013.1 0 13.6 23.0 31.2 81.3 67.2 228.2
08/05 10:30 6.9 73 5.62 2.4 17 30 1013.1 0 13.5 23.0 31.0 81.0 66.8 226.7
08/05 10:20 6.8 74 5.66 2.5 17 26 1013.1 0 13.6 23.1 31.2 81.5 67.4 228.8
08/05 10:10 6.6 74 5.59 2.3 19 22 1013.1 0 13.4 23.0 31.0 81.0 66.6 226.2
08/05 10:00 6.3 76 5.63 2.4 26 39 1013.1 0 13.5 23.2 31.3 81.7 67.4 228.9
08/05 09:50 6.2 76 5.59 2.4 20 26 1013.1 0 13.5 23.1 31.2 81.4 67.0 227.3
08/05 09:40 6.2 78 5.74 2.6 22 24 1013.1 0 13.8 23.4 31.8 83.0 68.9 234.2
08/05 09:30 5.5 78 5.48 2 24 39 1013.1 0 13.2 23.1 31.0 80.9 66.1 224.3
08/05 09:20 5.5 79 5.55 2.1 19 30 1013.1 0 13.4 23.3 31.3 81.7 67.1 227.5
08/05 09:10 5.4 80 5.59 2.2 17 20 1013.1 0 13.5 23.3 31.5 82.2 67.7 229.6
08/05 09:00 4.8 81 5.44 1.8 15 30 1013.1 0 13.2 23.3 31.1 81.2 66.2 224.4
08/05 08:50 4.5 81 5.33 1.5 17 28 1013.1 0.2 13.0 23.2 30.8 80.4 65.0 220.2
08/05 08:40 4.6 82 5.43 1.8 15 24 1013.1 0.2 13.2 23.3 31.2 81.3 66.2 224.5
08/05 08:30 4.1 83 5.32 1.5 17 28 1013.1 0.2 12.9 23.2 30.9 80.7 65.2 220.9
08/05 08:20 3.8 84 5.27 1.3 11 15 1013.1 0.2 12.9 23.2 30.8 80.5 64.8 219.4
08/05 08:10 3.5 85 5.23 1.2 17 22 1013.1 0.2 12.8 23.3 30.8 80.3 64.5 218.3
08/05 08:00 3.1 86 5.15 1 15 28 1013.1 0.2 12.6 23.2 30.6 79.9 63.8 215.7
08/05 07:50 3.1 86 5.15 1 11 19 1013.1 0.2 12.6 23.2 30.6 79.9 63.8 215.7
08/05 07:40 3.1 87 5.21 1.1 15 20 1013.1 0.2 12.7 23.3 30.9 80.5 64.6 218.5
08/05 07:30 2.9 88 5.2 1.1 17 26 1013.1 0.2 12.7 23.4 30.9 80.6 64.6 218.6
08/05 07:20 2.8 88 5.17 1.1 13 17 1013.1 0.2 12.7 23.3 30.8 80.4 64.3 217.5
08/05 07:10 2.6 88 5.1 0.9 19 28 1013.1 0.2 12.5 23.3 30.6 79.9 63.5 214.7
08/05 07:00 2.5 89 5.12 0.9 13 26 1013.1 0.2 12.6 23.3 30.7 80.2 63.9 216.0
08/05 06:50 2.2 90 5.07 0.7 17 22 1013.1 0.2 12.5 23.3 30.7 79.9 63.5 214.4
08/05 06:40 2.1 90 5.04 0.6 22 28 1013.1 0.2 12.4 23.3 30.6 79.7 63.1 213.3
08/05 06:30 2.2 90 5.07 0.7 20 32 1013.1 0.2 12.5 23.3 30.7 79.9 63.5 214.4
08/05 06:20 2.1 90 5.04 0.6 24 28 1013.1 0.2 12.4 23.3 30.6 79.7 63.1 213.3
08/05 06:10 2 90 5.01 0.5 20 32 1013.1 0.2 12.4 23.3 30.5 79.5 62.8 212.1
08/05 06:00 2 91 5.06 0.7 22 39 1013.1 0.2 12.5 23.4 30.7 80.0 63.5 214.5
08/05 05:50 1.7 91 4.96 0.4 22 30 1013.1 0.2 12.3 23.3 30.4 79.3 62.4 210.6
08/05 05:40 1.5 91 4.89 0.2 19 24 1013.1 0.2 12.1 23.2 30.2 78.7 61.6 207.8
08/05 05:30 1.4 91 4.86 0.1 19 30 1013.1 0.2 12.0 23.2 30.1 78.5 61.3 206.7
08/05 05:20 1.2 91 4.79 -0.1 19 26 1013.1 0.2 11.9 23.1 29.9 77.9 60.5 203.9
08/05 05:10 0.9 91 4.7 -0.4 24 28 1013.1 0.2 11.7 23.1 29.6 77.2 59.5 200.4
08/05 05:00 0.8 91 4.66 -0.5 20 33 1013.1 0.2 11.6 23.0 29.5 76.9 59.1 198.8
08/05 04:50 0.8 91 4.66 -0.5 19 22 1013.1 0.2 11.6 23.0 29.5 76.9 59.1 198.8
08/05 04:40 0.8 91 4.66 -0.5 15 20 1013.1 0.2 11.6 23.0 29.5 76.9 59.1 198.8
08/05 04:30 0.8 90 4.61 -0.6 20 30 1013.1 0.2 11.5 22.9 29.3 76.3 58.4 196.4
08/05 04:20 0.8 90 4.61 -0.7 24 32 1013.1 0.2 11.5 22.9 29.3 76.3 58.4 196.4
08/05 04:10 0.7 90 4.58 -0.8 17 24 1013.1 0.2 11.5 22.9 29.2 76.1 58.1 195.3
08/05 04:00 0.6 90 4.55 -0.8 13 20 1013.1 0.2 11.4 22.9 29.2 75.9 57.7 194.1
08/05 03:50 0.6 90 4.55 -0.9 19 22 1013.1 0.2 11.4 22.9 29.2 75.9 57.7 194.1
08/05 03:40 0.7 89 4.53 -0.9 11 19 1013.1 0.2 11.4 22.8 29.0 75.6 57.4 192.9
08/05 03:30 0.8 88 4.51 -1 15 24 1013.1 0.2 11.3 22.8 28.9 75.3 57.1 191.7
08/05 03:20 0.8 86 4.41 -1.2 13 22 1013.1 0.2 11.1 22.6 28.5 74.2 55.7 187.1
08/05 03:10 1.1 86 4.5 -1 24 33 1013.1 0.2 11.3 22.7 28.8 74.9 56.7 190.6
08/05 03:00 1.1 87 4.55 -0.8 20 30 1013.1 0.2 11.4 22.8 29.0 75.4 57.4 192.9
08/05 02:50 1 86 4.47 -1 20 26 1013.1 0.2 11.2 22.7 28.7 74.6 56.4 189.4
08/05 02:40 1.1 86 4.5 -0.9 22 26 1013.1 0.2 11.3 22.7 28.8 74.9 56.7 190.6
08/05 02:30 0.9 87 4.49 -1 20 33 1013.1 0.2 11.3 22.7 28.8 75.0 56.7 190.6
08/05 02:20 1.1 86 4.5 -1 22 28 1013.1 0.2 11.3 22.7 28.8 74.9 56.7 190.6
08/05 02:10 1.1 86 4.5 -1 20 26 1013.1 0.2 11.3 22.7 28.8 74.9 56.7 190.6
08/05 02:00 1.3 85 4.51 -0.9 22 39 1013.1 0.2 11.3 22.7 28.7 74.8 56.7 190.5
08/05 01:50 1.1 85 4.45 -1.2 20 28 1013.1 0.2 11.2 22.6 28.6 74.3 56.0 188.2
08/05 01:40 1.3 85 4.51 -1 22 32 1013.1 0.2 11.3 22.7 28.7 74.8 56.7 190.5
08/05 01:30 1.1 85 4.45 -1.1 22 39 1013.1 0.2 11.2 22.6 28.6 74.3 56.0 188.2
08/05 01:20 1 85 4.42 -1.3 19 28 1013.1 0.2 11.1 22.6 28.5 74.1 55.7 187.1
08/05 01:10 0.9 85 4.39 -1.4 26 35 1013.1 0.2 11.0 22.6 28.4 73.9 55.4 185.9
08/05 01:00 0.8 85 4.36 -1.4 24 41 1013.1 0.2 11.0 22.5 28.3 73.7 55.1 184.8
08/05 00:50 0.8 84 4.31 -1.5 24 33 1013.1 0.2 10.9 22.5 28.1 73.1 54.4 182.4
08/05 00:40 0.7 84 4.28 -1.6 20 28 1013.1 0.2 10.8 22.4 28.0 72.9 54.1 181.3
08/05 00:20 0.6 84 4.25 -1.8 17 26 1013.1 0.2 10.8 22.4 27.9 72.7 53.8 180.1
08/05 00:10 0.6 84 4.25 -1.8 19 28 1013.1 0.2 10.8 22.4 27.9 72.7 53.8 180.1
08/05 00:00 0.6 83 4.2 -1.9 19 32 1013.1 0.2 10.6 22.3 27.7 72.1 53.1 177.8
07/05 23:50 0.7 83 4.23 -1.9 24 33 1013.1 0.2 10.7 22.4 27.8 72.4 53.4 179.0
07/05 23:40 0.7 81 4.12 -2.1 17 22 1013.1 0.2 10.5 22.2 27.4 71.2 52.0 173.9
07/05 23:30 0.7 82 4.17 -2 17 33 1013.1 0.2 10.6 22.3 27.6 71.7 52.6 176.2
07/05 23:20 0.7 81 4.12 -2.1 19 28 1013.1 0.2 10.5 22.2 27.4 71.2 52.0 173.9
07/05 23:10 0.8 81 4.15 -2 17 26 1013.1 0.2 10.5 22.2 27.5 71.4 52.3 175.0
07/05 23:00 0.8 82 4.2 -1.9 17 28 1013.1 0.2 10.6 22.3 27.7 72.0 53.0 177.3
07/05 22:50 0.7 81 4.12 -2.2 19 24 1013.1 0.2 10.5 22.2 27.4 71.2 52.0 173.9
07/05 22:40 0.8 80 4.1 -2.3 17 26 1013.1 0.2 10.4 22.1 27.3 70.9 51.6 172.7
07/05 22:30 0.8 80 4.1 -2.2 19 35 1013.1 0.2 10.4 22.1 27.3 70.9 51.6 172.7
07/05 22:20 0.9 78 4.03 -2.4 19 30 1013.1 0.2 10.3 22.0 27.0 70.1 50.7 169.3
07/05 22:10 0.9 78 4.03 -2.5 22 26 1013.1 0.2 10.3 22.0 27.0 70.1 50.7 169.3
07/05 22:00 0.9 78 4.03 -2.5 17 28 1013.1 0.2 10.3 22.0 27.0 70.1 50.7 169.3
07/05 21:50 1 77 4 -2.6 15 22 1013.1 0.2 10.2 21.9 26.8 69.7 50.2 167.7
07/05 21:40 1 76 3.95 -2.8 15 20 1013.1 0.2 10.1 21.8 26.6 69.1 49.6 165.4
07/05 21:30 1.2 76 4 -2.5 15 28 1013.1 0.2 10.2 21.9 26.8 69.5 50.1 167.3
07/05 21:20 1.2 75 3.95 -2.8 11 19 1013.1 0.2 10.1 21.8 26.6 69.0 49.4 165.0
07/05 21:10 1.4 73 3.9 -2.8 15 22 1013.1 0.2 10.0 21.7 26.3 68.3 48.7 162.4
07/05 21:00 1.5 74 3.98 -2.6 20 41 1013.1 0.2 10.1 21.8 26.6 69.0 49.6 165.8
07/05 20:50 1.6 73 3.95 -2.7 17 24 1013.1 0.2 10.1 21.7 26.4 68.6 49.2 164.2
07/05 20:40 1.6 73 3.95 -2.7 15 17 1013.1 0.2 10.1 21.7 26.4 68.6 49.2 164.2
07/05 20:30 1.6 72 3.9 -2.9 20 41 1013.1 0.2 10.0 21.6 26.2 68.1 48.5 161.9
07/05 20:20 1.7 72 3.92 -2.8 19 28 1013.1 0.2 10.0 21.6 26.3 68.2 48.7 162.6
07/05 20:10 1.8 71 3.9 -2.9 17 22 1013.1 0.2 10.0 21.6 26.2 67.9 48.4 161.5
07/05 20:00 1.8 70 3.84 -3.1 17 33 1013.1 0.2 9.8 21.5 25.9 67.3 47.7 158.9
07/05 19:50 2 69 3.84 -3.1 13 19 1013.1 0.2 9.8 21.4 25.9 67.1 47.5 158.5

Last Refresh: 08-May-2026 12:08:18

Bureau of Meteorology